createdAt,value
2018-03-03T00:00:25.928Z,72.00
2018-03-03T00:02:54.587Z,70.85
2018-03-03T00:05:24.020Z,79.70
2018-03-03T00:07:52.685Z,88.87
2018-03-03T00:10:21.344Z,70.37
2018-03-03T00:12:50.015Z,75.32
2018-03-03T00:15:18.664Z,73.93
2018-03-03T00:17:47.336Z,92.72
2018-03-03T00:20:15.989Z,78.65
2018-03-03T00:22:44.681Z,78.43
2018-03-03T00:25:13.364Z,75.97
2018-03-03T00:27:42.020Z,63.60
2018-03-03T00:32:45.717Z,68.50
2018-03-03T00:35:15.189Z,67.53
2018-03-03T00:37:43.939Z,68.47
2018-03-03T00:40:12.619Z,72.90
2018-03-03T00:42:41.336Z,71.20
2018-03-03T00:45:09.986Z,75.53
2018-03-03T00:47:38.700Z,76.30
2018-03-03T00:50:07.355Z,78.82
2018-03-03T00:52:36.057Z,84.55
2018-03-03T00:55:04.817Z,72.80
2018-03-03T00:57:34.285Z,72.60
2018-03-03T01:00:03.192Z,70.22
2018-03-03T01:02:31.850Z,81.25
2018-03-03T01:05:00.521Z,72.32
2018-03-03T01:07:29.202Z,91.57
2018-03-03T01:09:57.866Z,75.55
2018-03-03T01:12:26.279Z,63.27
2018-03-03T01:14:55.449Z,80.63
2018-03-03T01:17:24.099Z,73.90
2018-03-03T01:19:52.513Z,69.77
2018-03-03T01:22:21.152Z,79.28
2018-03-03T01:24:49.829Z,88.12
2018-03-03T01:27:18.480Z,74.00
2018-03-03T01:29:47.152Z,69.22
2018-03-03T01:32:15.825Z,64.65
2018-03-03T01:34:44.216Z,63.80
2018-03-03T01:37:12.617Z,76.50
2018-03-03T01:39:41.268Z,69.35
2018-03-03T01:42:09.941Z,78.75
2018-03-03T01:44:39.356Z,82.00
2018-03-03T01:47:08.027Z,86.95
2018-03-03T01:49:37.454Z,77.62
2018-03-03T01:52:06.217Z,82.53
2018-03-03T01:54:35.633Z,76.03
2018-03-03T01:57:04.317Z,68.75
2018-03-03T01:59:33.043Z,76.75
2018-03-03T02:02:02.625Z,83.15
2018-03-03T02:04:31.279Z,74.22
2018-03-03T02:07:00.709Z,71.72
2018-03-03T02:09:29.373Z,67.50
2018-03-03T02:11:58.804Z,71.40
2018-03-03T02:14:27.125Z,62.05
2018-03-03T02:16:56.230Z,60.42
2018-03-03T02:19:24.871Z,79.12
2018-03-03T02:21:53.541Z,78.10
2018-03-03T02:24:22.214Z,80.50
2018-03-03T02:26:50.597Z,81.77
2018-03-03T02:29:19.276Z,71.70
2018-03-03T02:31:47.946Z,75.78
2018-03-03T02:34:17.369Z,81.95
2018-03-03T02:36:46.032Z,73.78
2018-03-03T02:39:15.117Z,82.85
2018-03-03T02:41:43.786Z,82.35
2018-03-03T02:44:12.500Z,83.05
2018-03-03T02:46:41.925Z,74.45
2018-03-03T02:49:10.594Z,61.03
2018-03-03T02:51:39.449Z,75.35
2018-03-03T02:54:09.062Z,68.70
2018-03-03T02:56:38.519Z,69.65
2018-03-03T02:59:07.124Z,62.13
2018-03-03T03:01:35.817Z,64.32
2018-03-03T03:04:04.508Z,61.97
2018-03-03T03:06:33.182Z,72.28
2018-03-03T03:09:01.840Z,66.75
2018-03-03T03:11:30.476Z,75.80
2018-03-03T03:13:59.134Z,68.62
2018-03-03T03:16:27.881Z,76.10
2018-03-03T03:18:56.954Z,74.68
2018-03-03T03:21:26.384Z,74.43
2018-03-03T03:23:55.041Z,66.70
2018-03-03T03:26:24.184Z,80.78
2018-03-03T03:28:52.840Z,74.22
2018-03-03T03:31:22.270Z,60.97
2018-03-03T03:33:51.022Z,81.50
2018-03-03T03:36:20.438Z,76.75
2018-03-03T03:38:49.169Z,88.12
2018-03-03T03:41:17.836Z,73.93
2018-03-03T03:43:46.514Z,68.28
2018-03-03T03:46:15.174Z,77.43
2018-03-03T03:48:43.860Z,86.25
2018-03-03T03:51:13.276Z,76.43
2018-03-03T03:53:41.921Z,55.80
2018-03-03T03:56:10.599Z,60.38
2018-03-03T03:58:39.836Z,71.00
2018-03-03T04:01:08.604Z,87.43
2018-03-03T04:03:38.073Z,74.30
2018-03-03T04:06:06.720Z,76.85
2018-03-03T04:08:35.391Z,82.75
2018-03-03T04:11:04.032Z,74.97
2018-03-03T04:13:32.684Z,85.60
2018-03-03T04:16:01.345Z,93.50
2018-03-03T04:18:30.024Z,88.35
2018-03-03T04:20:58.693Z,115.32
2018-03-03T04:23:27.341Z,95.55
2018-03-03T04:25:55.820Z,72.10
2018-03-03T04:28:24.300Z,85.45
2018-03-03T04:30:52.763Z,67.90
2018-03-03T04:33:21.899Z,76.32
2018-03-03T04:35:50.367Z,84.32
2018-03-03T04:38:18.853Z,71.68
2018-03-03T04:40:47.497Z,78.25
2018-03-03T04:43:16.144Z,77.55
2018-03-03T04:45:44.785Z,78.50
2018-03-03T04:48:13.278Z,65.62
2018-03-03T04:50:41.737Z,82.53
2018-03-03T04:53:10.204Z,89.15
2018-03-03T04:55:38.673Z,77.25
2018-03-03T04:58:07.144Z,67.85
2018-03-03T05:00:37.364Z,98.15
2018-03-03T05:03:12.169Z,91.63
2018-03-03T05:05:46.269Z,81.32
2018-03-03T05:21:48.228Z,62.80
2018-03-03T05:24:22.389Z,67.32
2018-03-03T05:26:56.549Z,76.50
2018-03-03T05:29:42.818Z,77.12
2018-03-03T05:45:44.068Z,72.65
2018-03-03T05:48:14.437Z,81.95
2018-03-03T06:04:19.990Z,81.85
2018-03-03T06:06:54.289Z,77.80
2018-03-03T06:09:26.146Z,86.85
2018-03-03T06:11:55.729Z,74.35
2018-03-03T06:14:24.191Z,79.60
2018-03-03T06:16:52.847Z,98.37
2018-03-03T06:19:21.534Z,72.00
2018-03-03T06:21:50.208Z,85.18
2018-03-03T06:24:18.940Z,107.50
2018-03-03T06:26:47.610Z,70.93
2018-03-03T06:29:16.281Z,93.32
2018-03-03T06:31:45.027Z,80.03
2018-03-03T06:34:14.453Z,72.90
2018-03-03T06:36:43.119Z,73.53
2018-03-03T06:39:12.564Z,69.75
2018-03-03T06:41:41.277Z,68.12
2018-03-03T06:44:10.530Z,74.15
2018-03-03T06:46:39.197Z,80.00
2018-03-03T06:49:07.843Z,76.35
2018-03-03T06:51:36.494Z,67.22
2018-03-03T06:54:05.926Z,75.18
2018-03-03T06:56:34.580Z,95.80
2018-03-03T06:59:04.017Z,87.90
2018-03-03T07:01:32.664Z,65.00
2018-03-03T07:04:02.169Z,89.62
2018-03-03T07:06:31.640Z,98.87
2018-03-03T07:09:00.664Z,79.45
2018-03-03T07:11:30.084Z,92.47
2018-03-03T07:13:58.551Z,83.68
2018-03-03T07:16:27.046Z,95.20
2018-03-03T07:18:55.709Z,91.65
2018-03-03T07:21:25.763Z,87.72
2018-03-03T07:23:54.490Z,90.90
2018-03-03T07:26:23.172Z,88.75
2018-03-03T07:28:52.583Z,78.78
2018-03-03T07:31:21.234Z,95.30
2018-03-03T07:33:49.901Z,85.53
2018-03-03T07:36:18.561Z,85.03
2018-03-03T07:38:48.001Z,78.37
2018-03-03T07:41:16.752Z,74.60
2018-03-03T07:43:46.198Z,75.22
2018-03-03T07:46:14.924Z,105.37
2018-03-03T07:48:43.574Z,88.60
2018-03-03T07:51:12.047Z,93.40
2018-03-03T07:53:40.707Z,83.05
2018-03-03T07:56:09.366Z,81.00
2018-03-03T07:58:49.925Z,83.30
2018-03-03T08:01:18.640Z,82.22
2018-03-03T08:03:47.222Z,81.95
2018-03-03T08:06:15.609Z,111.17
2018-03-03T08:08:43.830Z,85.43
2018-03-03T08:11:12.980Z,92.83
2018-03-03T08:13:41.373Z,89.83
2018-03-03T08:16:09.755Z,94.20
2018-03-03T08:18:38.158Z,88.83
2018-03-03T08:21:07.375Z,88.40
2018-03-03T08:23:35.760Z,86.00
2018-03-03T08:26:04.153Z,83.63
2018-03-03T08:28:32.332Z,88.23
2018-03-03T08:31:00.719Z,92.17
2018-03-03T08:33:29.089Z,85.93
2018-03-03T08:35:57.481Z,88.70
2018-03-03T08:38:26.432Z,85.50
2018-03-03T08:40:54.820Z,79.33
2018-03-03T08:43:23.247Z,77.70
2018-03-03T08:45:51.870Z,87.93
2018-03-03T08:48:20.253Z,87.40
2018-03-03T08:50:48.621Z,85.13
2018-03-03T08:53:16.673Z,79.63
2018-03-03T08:55:45.909Z,93.13
2018-03-03T08:58:14.334Z,88.30
2018-03-03T09:00:42.726Z,88.90
2018-03-03T09:03:11.872Z,94.17
2018-03-03T09:05:40.251Z,95.60
2018-03-03T09:08:08.302Z,94.80
2018-03-03T09:10:36.709Z,101.87
2018-03-03T09:13:05.101Z,100.80
2018-03-03T09:15:33.794Z,101.50
2018-03-03T09:18:02.197Z,80.57
2018-03-03T09:20:31.345Z,107.97
2018-03-03T09:22:59.720Z,96.60
2018-03-03T09:25:28.093Z,90.00
2018-03-03T09:27:56.480Z,93.57
2018-03-03T09:30:24.869Z,84.77
2018-03-03T09:32:53.265Z,91.43
2018-03-03T09:35:21.321Z,87.73
2018-03-03T09:37:49.541Z,96.47
2018-03-03T09:40:17.944Z,90.57
2018-03-03T09:42:46.321Z,86.17
2018-03-03T09:45:14.903Z,92.97
2018-03-03T09:47:43.275Z,94.87
2018-03-03T09:50:11.485Z,91.97
2018-03-03T09:52:39.876Z,94.17
2018-03-03T09:55:08.333Z,94.73
2018-03-03T09:57:36.745Z,81.53
2018-03-03T10:00:05.135Z,86.43
2018-03-03T10:02:34.492Z,89.10
2018-03-03T10:05:02.906Z,82.47
2018-03-03T10:07:32.112Z,85.83
2018-03-03T10:10:01.271Z,72.63
2018-03-03T10:12:29.668Z,78.07
2018-03-03T10:14:58.072Z,82.27
2018-03-03T10:17:27.264Z,72.87
2018-03-03T10:19:56.464Z,76.47
2018-03-03T10:22:25.665Z,81.20
2018-03-03T10:24:54.823Z,77.90
2018-03-03T10:27:23.224Z,77.77
2018-03-03T10:29:51.625Z,70.60
2018-03-03T10:32:20.760Z,67.40
2018-03-03T10:34:49.176Z,73.03
2018-03-03T10:37:19.507Z,64.50
2018-03-03T10:39:47.919Z,67.37
2018-03-03T10:42:16.496Z,66.23
2018-03-03T10:44:44.868Z,73.70
2018-03-03T10:47:14.028Z,60.70
2018-03-03T10:49:42.483Z,74.37
2018-03-03T10:52:11.377Z,66.10
2018-03-03T10:54:40.520Z,63.03
2018-03-03T10:57:09.660Z,65.07
2018-03-03T10:59:38.039Z,59.07
2018-03-03T11:02:06.263Z,55.67
2018-03-03T11:04:35.509Z,53.10
2018-03-03T11:07:04.814Z,50.60
2018-03-03T11:09:33.221Z,55.20
2018-03-03T11:12:01.592Z,58.00
2018-03-03T11:14:30.119Z,60.57
2018-03-03T11:16:58.516Z,65.63
2018-03-03T11:19:26.895Z,66.27
2018-03-03T11:21:55.285Z,70.97
2018-03-03T11:24:23.738Z,61.83
2018-03-03T11:26:52.146Z,69.97
2018-03-03T11:29:20.556Z,69.10
2018-03-03T11:31:49.024Z,51.00
2018-03-03T11:34:17.404Z,64.37
2018-03-03T11:36:45.833Z,67.30
2018-03-03T11:39:14.226Z,72.60
2018-03-03T11:41:42.627Z,67.73
2018-03-03T11:44:11.067Z,75.80
2018-03-03T11:46:39.485Z,70.37
2018-03-03T11:49:07.909Z,77.20
2018-03-03T11:51:37.051Z,78.23
2018-03-03T11:54:05.617Z,78.67
2018-03-03T11:56:34.052Z,87.83
2018-03-03T11:59:02.940Z,82.87
2018-03-03T12:01:31.176Z,95.87
2018-03-03T12:03:59.557Z,82.70
2018-03-03T12:06:27.956Z,78.33
2018-03-03T12:08:56.351Z,82.43
2018-03-03T12:11:24.857Z,100.83
2018-03-03T12:13:53.371Z,96.63
2018-03-03T12:16:21.760Z,96.90
2018-03-03T12:18:50.194Z,103.87
2018-03-03T12:21:18.609Z,94.60
2018-03-03T12:23:47.185Z,96.97
2018-03-03T12:26:15.870Z,96.53
2018-03-03T12:28:44.328Z,103.00
2018-03-03T12:31:12.912Z,96.47
2018-03-03T12:33:41.532Z,93.27
2018-03-03T12:36:11.432Z,101.60
2018-03-03T12:38:43.934Z,85.47
2018-03-03T12:41:12.373Z,96.10
2018-03-03T12:43:40.868Z,88.37
2018-03-03T12:46:09.264Z,96.47
2018-03-03T12:48:37.455Z,95.33
2018-03-03T12:51:05.670Z,91.13
2018-03-03T12:53:34.220Z,95.43
2018-03-03T12:56:02.722Z,103.20
2018-03-03T12:58:31.363Z,95.57
2018-03-03T13:01:00.613Z,100.27
2018-03-03T13:03:29.015Z,104.33
2018-03-03T13:05:57.396Z,95.13
2018-03-03T13:08:25.774Z,99.90
2018-03-03T13:10:54.486Z,98.50
2018-03-03T13:13:23.001Z,105.57
2018-03-03T13:15:51.540Z,107.80
2018-03-03T13:18:19.912Z,107.87
2018-03-03T13:20:48.395Z,118.87
2018-03-03T13:23:16.824Z,110.70
2018-03-03T13:25:46.169Z,122.27
2018-03-03T13:28:15.941Z,112.60
2018-03-03T13:30:44.350Z,119.97
2018-03-03T13:33:12.849Z,119.03
2018-03-03T13:35:41.255Z,112.93
2018-03-03T13:38:09.840Z,121.33
2018-03-03T13:40:38.228Z,132.37
2018-03-03T13:43:07.546Z,110.03
2018-03-03T13:45:36.337Z,125.83
2018-03-03T13:48:05.098Z,111.10
2018-03-03T13:50:34.432Z,114.07
2018-03-03T13:53:02.852Z,109.87
2018-03-03T13:55:32.068Z,107.97
2018-03-03T13:58:00.649Z,107.67
2018-03-03T14:00:29.143Z,101.03
2018-03-03T14:02:58.320Z,114.87
2018-03-03T14:05:26.811Z,95.73
2018-03-03T14:07:55.324Z,107.37
2018-03-03T14:10:23.728Z,103.17
2018-03-03T14:12:52.205Z,91.30
2018-03-03T14:15:20.788Z,98.47
2018-03-03T14:17:49.174Z,109.60
2018-03-03T14:20:18.800Z,87.33
2018-03-03T14:22:47.204Z,98.47
2018-03-03T14:25:15.577Z,105.70
2018-03-03T14:27:43.956Z,112.37
2018-03-03T14:30:13.127Z,100.77
2018-03-03T14:32:41.565Z,106.60
2018-03-03T14:35:10.045Z,100.83
2018-03-03T14:37:38.425Z,95.13
2018-03-03T14:40:07.615Z,106.40
2018-03-03T14:42:36.005Z,99.93
2018-03-03T14:45:04.457Z,106.40
2018-03-03T14:47:33.693Z,97.83
2018-03-03T14:50:04.989Z,89.17
2018-03-03T14:52:33.397Z,96.23
2018-03-03T14:55:01.854Z,106.20
2018-03-03T14:57:31.026Z,98.23
2018-03-03T14:59:59.437Z,109.23
2018-03-03T15:02:28.651Z,100.03
2018-03-03T15:04:57.045Z,105.27
2018-03-03T15:07:25.412Z,106.87
2018-03-03T15:09:53.795Z,106.97
2018-03-03T15:12:22.962Z,97.40
2018-03-03T15:14:52.148Z,97.77
2018-03-03T15:17:20.570Z,102.50
2018-03-03T15:19:48.970Z,92.80
2018-03-03T15:22:17.585Z,98.43
2018-03-03T15:24:45.964Z,107.97
2018-03-03T15:27:14.389Z,100.30
2018-03-03T15:29:42.768Z,83.87
2018-03-03T15:32:11.322Z,94.83
2018-03-03T15:34:40.480Z,91.10
2018-03-03T15:37:08.903Z,90.37
2018-03-03T15:39:38.047Z,86.97
2018-03-03T15:42:06.610Z,91.70
2018-03-03T15:44:35.001Z,89.10
2018-03-03T15:47:03.370Z,88.13
2018-03-03T15:49:31.748Z,85.93
2018-03-03T15:52:00.149Z,83.37
2018-03-03T15:54:28.535Z,73.97
2018-03-03T15:56:56.914Z,89.13
2018-03-03T15:59:25.294Z,81.87
2018-03-03T16:01:53.739Z,97.50
2018-03-03T16:04:22.131Z,86.83
2018-03-03T16:06:50.538Z,97.00
2018-03-03T16:09:18.950Z,94.53
2018-03-03T16:11:48.236Z,96.57
2018-03-03T16:14:17.783Z,103.10
2018-03-03T16:16:46.441Z,92.43
2018-03-03T16:19:15.578Z,87.53
2018-03-03T16:21:43.961Z,78.63
2018-03-03T16:24:13.085Z,98.53
2018-03-03T16:26:41.289Z,93.97
2018-03-03T16:29:09.733Z,98.43
2018-03-03T16:31:39.011Z,94.73
2018-03-03T16:34:07.723Z,87.50
2018-03-03T16:36:36.126Z,81.10
2018-03-03T16:39:04.690Z,97.67
2018-03-03T16:41:33.376Z,86.53
2018-03-03T16:44:02.523Z,80.73
2018-03-03T16:46:30.925Z,86.27
2018-03-03T16:48:59.556Z,78.50
2018-03-03T16:51:28.215Z,84.00
2018-03-03T16:53:56.814Z,79.83
2018-03-03T16:56:26.046Z,83.70
2018-03-03T16:58:54.453Z,88.90
2018-03-03T17:01:22.832Z,103.00
2018-03-03T17:03:52.276Z,80.73
2018-03-03T17:06:20.685Z,97.67
2018-03-03T17:08:49.062Z,92.60
2018-03-03T17:11:17.475Z,59.87
2018-03-03T17:13:45.891Z,92.07
2018-03-03T17:16:15.040Z,81.87
2018-03-03T17:18:44.188Z,89.03
2018-03-03T17:21:13.348Z,73.37
2018-03-03T17:23:41.726Z,73.40
2018-03-03T17:26:10.118Z,63.13
2018-03-03T17:28:38.501Z,89.37
2018-03-03T17:31:08.238Z,77.25
2018-03-03T17:33:36.608Z,70.37
2018-03-03T17:36:05.318Z,84.10
2018-03-03T17:38:34.744Z,107.47
2018-03-03T17:41:03.149Z,79.40
2018-03-03T17:43:32.326Z,81.57
2018-03-03T17:46:00.982Z,65.20
2018-03-03T17:48:29.408Z,66.40
2018-03-03T17:50:57.788Z,62.07
2018-03-03T17:53:26.175Z,81.90
2018-03-03T17:55:54.852Z,45.42
2018-03-03T17:58:23.489Z,59.78
2018-03-03T18:00:52.722Z,59.67
2018-03-03T18:03:21.470Z,63.40
2018-03-03T18:05:50.908Z,68.82
2018-03-03T18:08:19.286Z,74.43
2018-03-03T18:10:48.228Z,88.93
2018-03-03T18:13:37.026Z,77.67
2018-03-03T18:16:05.685Z,95.45
2018-03-03T18:18:35.097Z,78.07
2018-03-03T18:21:03.749Z,84.57
2018-03-03T18:23:32.502Z,76.93
2018-03-03T18:26:01.154Z,90.22
2018-03-03T18:28:29.942Z,70.85
2018-03-03T18:30:58.618Z,86.07
2018-03-03T18:33:27.492Z,89.50
2018-03-03T18:35:56.136Z,82.43
2018-03-03T18:38:24.792Z,74.95
2018-03-03T18:40:54.204Z,82.62
2018-03-03T18:43:22.865Z,78.43
2018-03-03T18:45:51.524Z,82.55
2018-03-03T18:48:20.029Z,75.53
2018-03-03T18:50:48.418Z,82.93
2018-03-03T18:53:16.890Z,92.12
2018-03-03T18:55:46.372Z,88.55
2018-03-03T18:58:14.747Z,84.30
2018-03-03T19:00:43.132Z,94.50
2018-03-03T19:03:11.652Z,84.60
2018-03-03T19:05:40.325Z,87.82
2018-03-03T19:08:08.716Z,82.77
2018-03-03T19:10:37.354Z,101.32
2018-03-03T19:13:06.010Z,81.32
2018-03-03T19:15:34.660Z,85.70
2018-03-03T19:18:03.332Z,90.25
2018-03-03T19:20:32.835Z,81.07
2018-03-03T19:23:01.533Z,73.70
2018-03-03T19:25:30.223Z,77.82
2018-03-03T19:27:58.910Z,76.22
2018-03-03T19:30:27.686Z,76.85
2018-03-03T19:32:56.106Z,76.70
2018-03-03T19:35:24.524Z,79.67
2018-03-03T19:37:54.113Z,73.55
2018-03-03T19:40:22.521Z,85.20
2018-03-03T19:42:50.983Z,78.47
2018-03-03T19:45:19.625Z,80.95
2018-03-03T19:47:48.326Z,84.00
2018-03-03T19:50:17.076Z,73.72
2018-03-03T19:52:45.583Z,99.40
2018-03-03T19:55:13.992Z,91.53
2018-03-03T19:57:43.537Z,96.07
2018-03-03T20:00:12.110Z,87.53
2018-03-03T20:02:40.561Z,87.83
2018-03-03T20:05:09.233Z,84.37
2018-03-03T20:07:38.374Z,85.60
2018-03-03T20:10:06.765Z,86.87
2018-03-03T20:12:35.699Z,90.57
2018-03-03T20:15:03.808Z,80.80
2018-03-03T20:17:32.193Z,74.70
2018-03-03T20:20:00.232Z,79.00
2018-03-03T20:22:29.573Z,91.80
2018-03-03T20:24:58.081Z,76.97
2018-03-03T20:27:26.961Z,76.07
2018-03-03T20:29:56.266Z,85.47
2018-03-03T20:32:25.731Z,77.83
2018-03-03T20:34:53.936Z,86.17
2018-03-03T20:37:22.344Z,77.87
2018-03-03T20:39:51.505Z,86.53
2018-03-03T20:42:19.888Z,88.33
2018-03-03T20:44:48.404Z,80.50
2018-03-03T20:47:17.811Z,77.60
2018-03-03T20:49:46.243Z,76.53
2018-03-03T20:52:14.622Z,69.33
2018-03-03T20:54:43.051Z,87.17
2018-03-03T20:57:11.441Z,79.73
2018-03-03T20:59:40.148Z,75.53
2018-03-03T21:02:08.660Z,48.93
2018-03-03T21:04:37.035Z,52.67
2018-03-03T21:07:05.436Z,52.30
2018-03-03T21:09:33.808Z,46.03
2018-03-03T21:12:11.932Z,49.40
2018-03-03T21:14:41.065Z,45.23
2018-03-03T21:17:09.491Z,47.17
2018-03-03T21:19:37.884Z,45.60
2018-03-03T21:22:07.033Z,40.97
2018-03-03T21:24:35.421Z,48.33
2018-03-03T21:27:03.808Z,24.30
2018-03-03T21:29:32.212Z,46.73
2018-03-03T21:32:01.351Z,45.00
2018-03-03T21:34:30.832Z,40.53
2018-03-03T21:36:59.217Z,40.00
2018-03-03T21:39:27.595Z,50.63
2018-03-03T21:41:56.095Z,34.30
2018-03-03T21:44:24.508Z,39.57
2018-03-03T21:46:53.060Z,34.73
2018-03-03T21:49:21.428Z,47.20
2018-03-03T21:51:50.013Z,34.50
2018-03-03T21:54:18.385Z,35.20
2018-03-03T21:56:46.872Z,31.07
2018-03-03T21:59:15.263Z,21.03
2018-03-03T22:01:43.625Z,25.67
2018-03-03T22:04:12.006Z,12.40
2018-03-03T22:06:40.421Z,23.80
2018-03-03T22:09:08.823Z,36.63
2018-03-03T22:11:38.062Z,22.30
2018-03-03T22:14:06.440Z,40.33
2018-03-03T22:16:34.823Z,20.20
2018-03-03T22:19:03.222Z,25.70
2018-03-03T22:21:31.492Z,23.67
2018-03-03T22:23:59.889Z,27.20
2018-03-03T22:26:28.284Z,24.27
2018-03-03T22:28:57.417Z,14.13
2018-03-03T22:31:25.816Z,22.43
2018-03-03T22:33:54.236Z,22.80
2018-03-03T22:36:23.378Z,17.10
2018-03-03T22:38:52.645Z,25.50
2018-03-03T22:41:21.776Z,13.53
2018-03-03T22:43:50.171Z,9.53
2018-03-03T22:46:21.194Z,20.53
2018-03-03T22:48:49.582Z,22.73
2018-03-03T22:51:18.088Z,33.13
2018-03-03T22:53:46.448Z,19.23
2018-03-03T22:56:14.840Z,20.23
2018-03-03T22:58:43.225Z,23.87
2018-03-03T23:01:11.614Z,13.07
2018-03-03T23:03:40.033Z,22.13
2018-03-03T23:06:08.557Z,18.23
2018-03-03T23:08:37.020Z,14.93
2018-03-03T23:11:05.406Z,11.63
2018-03-03T23:13:33.855Z,11.87
2018-03-03T23:16:03.731Z,20.37
2018-03-03T23:18:32.110Z,27.13
2018-03-03T23:21:00.492Z,24.47
2018-03-03T23:23:28.693Z,20.70
2018-03-03T23:25:57.826Z,24.73
2018-03-03T23:28:26.252Z,26.40
2018-03-03T23:30:55.409Z,24.50
2018-03-03T23:33:23.780Z,26.70
2018-03-03T23:35:52.228Z,27.20
2018-03-03T23:38:20.628Z,24.57
2018-03-03T23:40:49.032Z,25.60
2018-03-03T23:43:17.408Z,23.40
2018-03-03T23:45:45.802Z,25.50
2018-03-03T23:48:14.184Z,32.63
2018-03-03T23:50:42.576Z,25.83
2018-03-03T23:53:10.970Z,23.37
2018-03-03T23:55:40.184Z,24.70
2018-03-03T23:58:08.554Z,26.80
